sensor_id;sensor_type;location;lat;lon;timestamp;temperature;humidity
1524;DHT22;755;53.658;10.118;2023-06-22T00:04:26;17.30;99.90
1524;DHT22;755;53.658;10.118;2023-06-22T00:14:30;17.10;99.90
1524;DHT22;755;53.658;10.118;2023-06-22T00:24:32;17.10;99.90
1524;DHT22;755;53.658;10.118;2023-06-22T00:34:35;17.00;99.90
1524;DHT22;755;53.658;10.118;2023-06-22T00:44:37;16.80;99.90
1524;DHT22;755;53.658;10.118;2023-06-22T00:54:40;17.00;99.90
1524;DHT22;755;53.658;10.118;2023-06-22T01:04:45;16.80;99.90
1524;DHT22;755;53.658;10.118;2023-06-22T01:14:57;16.80;99.90
1524;DHT22;755;53.658;10.118;2023-06-22T01:25:10;16.90;99.90
1524;DHT22;755;53.658;10.118;2023-06-22T01:35:15;16.80;99.90
1524;DHT22;755;53.658;10.118;2023-06-22T01:45:17;16.70;99.90
1524;DHT22;755;53.658;10.118;2023-06-22T01:55:21;16.60;99.90
1524;DHT22;755;53.658;10.118;2023-06-22T02:05:25;16.40;99.90
1524;DHT22;755;53.658;10.118;2023-06-22T02:15:31;16.40;99.90
1524;DHT22;755;53.658;10.118;2023-06-22T02:25:33;16.50;99.90
1524;DHT22;755;53.658;10.118;2023-06-22T02:35:36;16.40;99.90
1524;DHT22;755;53.658;10.118;2023-06-22T02:45:40;16.30;99.90
1524;DHT22;755;53.658;10.118;2023-06-22T02:55:43;16.20;99.90
1524;DHT22;755;53.658;10.118;2023-06-22T03:05:47;16.10;99.90
1524;DHT22;755;53.658;10.118;2023-06-22T03:15:50;15.90;99.90
1524;DHT22;755;53.658;10.118;2023-06-22T03:25:54;15.90;99.90
1524;DHT22;755;53.658;10.118;2023-06-22T03:35:59;15.80;99.90
1524;DHT22;755;53.658;10.118;2023-06-22T03:46:01;15.80;99.90
1524;DHT22;755;53.658;10.118;2023-06-22T03:56:05;15.80;99.90
1524;DHT22;755;53.658;10.118;2023-06-22T04:06:08;15.80;99.90
1524;DHT22;755;53.658;10.118;2023-06-22T04:16:11;16.10;99.90
1524;DHT22;755;53.658;10.118;2023-06-22T04:26:13;16.20;99.90
1524;DHT22;755;53.658;10.118;2023-06-22T04:36:17;16.50;99.90
1524;DHT22;755;53.658;10.118;2023-06-22T04:46:19;16.90;99.90
1524;DHT22;755;53.658;10.118;2023-06-22T04:56:22;17.00;99.90
1524;DHT22;755;53.658;10.118;2023-06-22T05:06:28;17.20;99.90
1524;DHT22;755;53.658;10.118;2023-06-22T05:16:32;17.50;99.90
1524;DHT22;755;53.658;10.118;2023-06-22T05:26:34;17.80;99.90
1524;DHT22;755;53.658;10.118;2023-06-22T05:36:38;18.00;99.90
1524;DHT22;755;53.658;10.118;2023-06-22T05:46:41;18.30;1.00
1524;DHT22;755;53.658;10.118;2023-06-22T05:56:46;18.50;1.00
1524;DHT22;755;53.658;10.118;2023-06-22T06:06:48;18.70;99.90
1524;DHT22;755;53.658;10.118;2023-06-22T06:16:51;19.20;99.90
1524;DHT22;755;53.658;10.118;2023-06-22T06:26:53;19.50;52.40
1524;DHT22;755;53.658;10.118;2023-06-22T06:36:57;20.00;1.00
1524;DHT22;755;53.658;10.118;2023-06-22T06:46:59;20.20;99.90
1524;DHT22;755;53.658;10.118;2023-06-22T06:57:03;20.10;1.00
1524;DHT22;755;53.658;10.118;2023-06-22T07:07:05;20.00;1.00
1524;DHT22;755;53.658;10.118;2023-06-22T07:17:08;20.00;1.00
1524;DHT22;755;53.658;10.118;2023-06-22T07:27:10;20.60;99.90
1524;DHT22;755;53.658;10.118;2023-06-22T07:37:14;20.70;83.80
1524;DHT22;755;53.658;10.118;2023-06-22T07:47:16;21.30;1.00
1524;DHT22;755;53.658;10.118;2023-06-22T07:57:20;21.50;1.00
1524;DHT22;755;53.658;10.118;2023-06-22T08:07:22;21.60;1.00
1524;DHT22;755;53.658;10.118;2023-06-22T08:17:26;22.40;1.00
1524;DHT22;755;53.658;10.118;2023-06-22T08:27:28;22.80;1.00
1524;DHT22;755;53.658;10.118;2023-06-22T08:37:33;23.20;99.90
1524;DHT22;755;53.658;10.118;2023-06-22T08:47:35;24.60;1.00
1524;DHT22;755;53.658;10.118;2023-06-22T08:57:39;24.90;1.00
1524;DHT22;755;53.658;10.118;2023-06-22T09:07:41;24.30;1.00
1524;DHT22;755;53.658;10.118;2023-06-22T09:17:45;25.90;99.90
1524;DHT22;755;53.658;10.118;2023-06-22T09:27:48;25.40;99.90
1524;DHT22;755;53.658;10.118;2023-06-22T09:37:51;25.70;99.90
1524;DHT22;755;53.658;10.118;2023-06-22T09:47:53;25.60;99.90
1524;DHT22;755;53.658;10.118;2023-06-22T09:57:56;26.50;99.90
1524;DHT22;755;53.658;10.118;2023-06-22T10:07:58;26.70;99.90
1524;DHT22;755;53.658;10.118;2023-06-22T10:18:02;26.30;99.90
1524;DHT22;755;53.658;10.118;2023-06-22T10:28:03;25.80;99.90
1524;DHT22;755;53.658;10.118;2023-06-22T10:38:07;26.80;99.90
1524;DHT22;755;53.658;10.118;2023-06-22T10:48:09;27.10;99.90
1524;DHT22;755;53.658;10.118;2023-06-22T10:58:12;26.50;99.90
1524;DHT22;755;53.658;10.118;2023-06-22T11:08:14;26.40;99.90
1524;DHT22;755;53.658;10.118;2023-06-22T11:18:18;26.90;99.90
1524;DHT22;755;53.658;10.118;2023-06-22T11:28:20;26.40;99.90
1524;DHT22;755;53.658;10.118;2023-06-22T11:38:23;26.10;99.90
1524;DHT22;755;53.658;10.118;2023-06-22T11:48:25;26.80;99.90
1524;DHT22;755;53.658;10.118;2023-06-22T11:58:28;27.00;99.90
1524;DHT22;755;53.658;10.118;2023-06-22T12:08:30;26.50;99.90
1524;DHT22;755;53.658;10.118;2023-06-22T12:18:34;26.90;99.90
1524;DHT22;755;53.658;10.118;2023-06-22T12:28:36;26.70;99.90
1524;DHT22;755;53.658;10.118;2023-06-22T12:38:39;27.00;99.90
1524;DHT22;755;53.658;10.118;2023-06-22T12:48:41;27.60;99.90
1524;DHT22;755;53.658;10.118;2023-06-22T12:58:44;27.50;99.90
1524;DHT22;755;53.658;10.118;2023-06-22T13:08:46;27.60;99.90
1524;DHT22;755;53.658;10.118;2023-06-22T13:18:49;28.10;99.90
1524;DHT22;755;53.658;10.118;2023-06-22T13:28:52;28.30;56.30
1524;DHT22;755;53.658;10.118;2023-06-22T13:38:56;28.10;55.30
1524;DHT22;755;53.658;10.118;2023-06-22T13:48:57;27.60;99.90
1524;DHT22;755;53.658;10.118;2023-06-22T13:59:01;26.80;99.90
1524;DHT22;755;53.658;10.118;2023-06-22T14:09:03;26.60;99.90
1524;DHT22;755;53.658;10.118;2023-06-22T14:19:06;26.40;99.90
1524;DHT22;755;53.658;10.118;2023-06-22T14:29:08;27.40;99.90
1524;DHT22;755;53.658;10.118;2023-06-22T14:39:12;27.00;99.90
1524;DHT22;755;53.658;10.118;2023-06-22T14:49:15;26.70;99.90
1524;DHT22;755;53.658;10.118;2023-06-22T14:59:21;26.40;99.90
1524;DHT22;755;53.658;10.118;2023-06-22T15:09:23;25.90;99.90
1524;DHT22;755;53.658;10.118;2023-06-22T15:19:26;25.70;1.00
1524;DHT22;755;53.658;10.118;2023-06-22T15:29:28;25.80;1.00
1524;DHT22;755;53.658;10.118;2023-06-22T15:39:36;25.80;1.00
1524;DHT22;755;53.658;10.118;2023-06-22T15:49:38;25.40;1.00
1524;DHT22;755;53.658;10.118;2023-06-22T15:59:41;25.00;1.00
1524;DHT22;755;53.658;10.118;2023-06-22T16:09:44;24.90;1.00
1524;DHT22;755;53.658;10.118;2023-06-22T16:19:47;24.50;1.00
1524;DHT22;755;53.658;10.118;2023-06-22T16:29:49;24.50;1.00
1524;DHT22;755;53.658;10.118;2023-06-22T16:39:52;24.20;1.00
1524;DHT22;755;53.658;10.118;2023-06-22T16:49:54;23.90;1.00
1524;DHT22;755;53.658;10.118;2023-06-22T16:59:57;23.90;1.00
1524;DHT22;755;53.658;10.118;2023-06-22T17:10:00;23.70;1.00
1524;DHT22;755;53.658;10.118;2023-06-22T17:20:06;23.50;79.50
1524;DHT22;755;53.658;10.118;2023-06-22T17:30:10;23.20;1.00
1524;DHT22;755;53.658;10.118;2023-06-22T17:40:15;22.80;1.00
1524;DHT22;755;53.658;10.118;2023-06-22T17:50:18;22.50;1.00
1524;DHT22;755;53.658;10.118;2023-06-22T18:00:22;22.20;1.00
1524;DHT22;755;53.658;10.118;2023-06-22T18:10:26;22.20;1.00
1524;DHT22;755;53.658;10.118;2023-06-22T18:20:31;22.20;1.00
1524;DHT22;755;53.658;10.118;2023-06-22T18:30:34;22.20;1.00
1524;DHT22;755;53.658;10.118;2023-06-22T18:40:37;22.20;1.00
1524;DHT22;755;53.658;10.118;2023-06-22T18:50:42;22.00;99.90
1524;DHT22;755;53.658;10.118;2023-06-22T19:00:45;21.90;99.90
1524;DHT22;755;53.658;10.118;2023-06-22T19:10:47;21.70;99.90
1524;DHT22;755;53.658;10.118;2023-06-22T19:20:53;21.70;99.90
1524;DHT22;755;53.658;10.118;2023-06-22T19:31:02;21.50;99.90
1524;DHT22;755;53.658;10.118;2023-06-22T19:41:07;21.40;99.90
1524;DHT22;755;53.658;10.118;2023-06-22T19:51:09;21.50;99.90
1524;DHT22;755;53.658;10.118;2023-06-22T20:01:14;21.40;99.90
1524;DHT22;755;53.658;10.118;2023-06-22T20:11:23;21.30;99.90
1524;DHT22;755;53.658;10.118;2023-06-22T20:21:31;21.10;99.90
1524;DHT22;755;53.658;10.118;2023-06-22T20:31:34;20.80;1.00
1524;DHT22;755;53.658;10.118;2023-06-22T20:41:39;20.60;1.00
1524;DHT22;755;53.658;10.118;2023-06-22T20:51:41;20.50;97.60
1524;DHT22;755;53.658;10.118;2023-06-22T21:01:44;20.30;99.90
1524;DHT22;755;53.658;10.118;2023-06-22T21:11:47;19.80;1.00
1524;DHT22;755;53.658;10.118;2023-06-22T21:21:50;19.10;99.90
1524;DHT22;755;53.658;10.118;2023-06-22T21:31:52;18.60;99.90
1524;DHT22;755;53.658;10.118;2023-06-22T21:41:55;18.50;99.90
1524;DHT22;755;53.658;10.118;2023-06-22T21:51:57;18.10;99.90
1524;DHT22;755;53.658;10.118;2023-06-22T22:02:01;17.30;99.90
1524;DHT22;755;53.658;10.118;2023-06-22T22:12:03;17.20;99.90
1524;DHT22;755;53.658;10.118;2023-06-22T22:22:07;17.20;99.90
1524;DHT22;755;53.658;10.118;2023-06-22T22:32:08;17.40;99.90
1524;DHT22;755;53.658;10.118;2023-06-22T22:42:12;17.60;99.90
1524;DHT22;755;53.658;10.118;2023-06-22T22:52:14;17.50;99.90
1524;DHT22;755;53.658;10.118;2023-06-22T23:02:17;17.50;99.90
1524;DHT22;755;53.658;10.118;2023-06-22T23:12:21;17.50;99.90
1524;DHT22;755;53.658;10.118;2023-06-22T23:22:24;17.60;99.90
1524;DHT22;755;53.658;10.118;2023-06-22T23:32:26;17.60;99.90
1524;DHT22;755;53.658;10.118;2023-06-22T23:42:30;17.30;99.90
1524;DHT22;755;53.658;10.118;2023-06-22T23:52:32;17.30;99.90
